sensor_id;sensor_type;location;lat;lon;timestamp;temperature;humidity
53073;DHT22;38955;48.916;2.336;2023-05-19T00:01:42;13.50;91.20
53073;DHT22;38955;48.916;2.336;2023-05-19T00:03:50;13.50;91.30
53073;DHT22;38955;48.916;2.336;2023-05-19T00:05:55;13.50;91.20
53073;DHT22;38955;48.916;2.336;2023-05-19T00:08:02;13.50;91.20
53073;DHT22;38955;48.916;2.336;2023-05-19T00:10:06;13.40;91.40
53073;DHT22;38955;48.916;2.336;2023-05-19T00:12:09;13.40;91.60
53073;DHT22;38955;48.916;2.336;2023-05-19T00:14:12;13.40;91.70
53073;DHT22;38955;48.916;2.336;2023-05-19T00:16:14;13.40;91.60
53073;DHT22;38955;48.916;2.336;2023-05-19T00:18:17;13.40;91.70
53073;DHT22;38955;48.916;2.336;2023-05-19T00:20:19;13.30;91.80
53073;DHT22;38955;48.916;2.336;2023-05-19T00:22:21;13.30;91.90
53073;DHT22;38955;48.916;2.336;2023-05-19T00:24:25;13.20;92.10
53073;DHT22;38955;48.916;2.336;2023-05-19T00:26:27;13.20;92.00
53073;DHT22;38955;48.916;2.336;2023-05-19T00:28:29;13.20;92.10
53073;DHT22;38955;48.916;2.336;2023-05-19T00:30:31;13.20;92.20
53073;DHT22;38955;48.916;2.336;2023-05-19T00:32:33;13.30;92.10
53073;DHT22;38955;48.916;2.336;2023-05-19T00:34:38;13.30;92.10
53073;DHT22;38955;48.916;2.336;2023-05-19T00:36:40;13.20;92.70
53073;DHT22;38955;48.916;2.336;2023-05-19T00:38:43;13.20;92.20
53073;DHT22;38955;48.916;2.336;2023-05-19T00:40:46;13.10;92.50
53073;DHT22;38955;48.916;2.336;2023-05-19T00:42:48;13.10;92.50
53073;DHT22;38955;48.916;2.336;2023-05-19T00:44:51;13.20;92.50
53073;DHT22;38955;48.916;2.336;2023-05-19T00:46:53;13.20;92.50
53073;DHT22;38955;48.916;2.336;2023-05-19T00:48:57;13.20;92.60
53073;DHT22;38955;48.916;2.336;2023-05-19T00:50:59;13.20;92.50
53073;DHT22;38955;48.916;2.336;2023-05-19T00:53:07;13.20;92.50
53073;DHT22;38955;48.916;2.336;2023-05-19T00:55:09;13.20;92.70
53073;DHT22;38955;48.916;2.336;2023-05-19T00:57:14;13.20;92.70
53073;DHT22;38955;48.916;2.336;2023-05-19T00:59:18;13.10;92.80
53073;DHT22;38955;48.916;2.336;2023-05-19T01:01:20;13.00;92.80
53073;DHT22;38955;48.916;2.336;2023-05-19T01:03:23;13.00;92.80
53073;DHT22;38955;48.916;2.336;2023-05-19T01:05:27;13.00;93.00
53073;DHT22;38955;48.916;2.336;2023-05-19T01:07:29;13.00;93.10
53073;DHT22;38955;48.916;2.336;2023-05-19T01:09:31;12.90;93.10
53073;DHT22;38955;48.916;2.336;2023-05-19T01:11:33;13.00;93.00
53073;DHT22;38955;48.916;2.336;2023-05-19T01:13:37;12.90;93.00
53073;DHT22;38955;48.916;2.336;2023-05-19T01:15:59;12.90;93.10
53073;DHT22;38955;48.916;2.336;2023-05-19T01:18:07;12.90;93.30
53073;DHT22;38955;48.916;2.336;2023-05-19T01:20:15;12.80;93.30
53073;DHT22;38955;48.916;2.336;2023-05-19T01:22:53;12.90;93.20
53073;DHT22;38955;48.916;2.336;2023-05-19T01:25:31;12.80;93.30
53073;DHT22;38955;48.916;2.336;2023-05-19T01:28:15;12.90;93.30
53073;DHT22;38955;48.916;2.336;2023-05-19T01:30:26;12.80;93.40
53073;DHT22;38955;48.916;2.336;2023-05-19T01:32:29;12.60;93.60
53073;DHT22;38955;48.916;2.336;2023-05-19T01:34:33;12.60;93.70
53073;DHT22;38955;48.916;2.336;2023-05-19T01:36:40;12.70;93.70
53073;DHT22;38955;48.916;2.336;2023-05-19T01:38:49;12.60;93.70
53073;DHT22;38955;48.916;2.336;2023-05-19T01:40:52;12.60;93.80
53073;DHT22;38955;48.916;2.336;2023-05-19T01:42:57;12.50;93.90
53073;DHT22;38955;48.916;2.336;2023-05-19T01:45:00;12.40;94.10
53073;DHT22;38955;48.916;2.336;2023-05-19T01:47:05;12.40;94.20
53073;DHT22;38955;48.916;2.336;2023-05-19T01:49:07;12.50;94.00
53073;DHT22;38955;48.916;2.336;2023-05-19T01:51:09;12.30;94.20
53073;DHT22;38955;48.916;2.336;2023-05-19T01:53:12;12.40;94.20
53073;DHT22;38955;48.916;2.336;2023-05-19T01:55:14;12.30;94.20
53073;DHT22;38955;48.916;2.336;2023-05-19T01:57:23;12.30;94.40
53073;DHT22;38955;48.916;2.336;2023-05-19T01:59:40;12.30;94.30
53073;DHT22;38955;48.916;2.336;2023-05-19T02:01:48;12.20;94.40
53073;DHT22;38955;48.916;2.336;2023-05-19T02:04:11;12.20;94.30
53073;DHT22;38955;48.916;2.336;2023-05-19T02:06:27;12.30;94.50
53073;DHT22;38955;48.916;2.336;2023-05-19T02:08:37;12.30;94.40
53073;DHT22;38955;48.916;2.336;2023-05-19T02:10:46;12.20;94.30
53073;DHT22;38955;48.916;2.336;2023-05-19T02:12:53;12.20;94.40
53073;DHT22;38955;48.916;2.336;2023-05-19T02:14:59;12.20;94.50
53073;DHT22;38955;48.916;2.336;2023-05-19T02:17:03;12.20;94.50
53073;DHT22;38955;48.916;2.336;2023-05-19T02:19:19;12.20;94.50
53073;DHT22;38955;48.916;2.336;2023-05-19T02:21:21;12.30;94.40
53073;DHT22;38955;48.916;2.336;2023-05-19T02:23:24;12.20;94.50
53073;DHT22;38955;48.916;2.336;2023-05-19T02:25:26;12.20;94.40
53073;DHT22;38955;48.916;2.336;2023-05-19T02:27:28;12.20;94.40
53073;DHT22;38955;48.916;2.336;2023-05-19T02:29:30;12.20;94.70
53073;DHT22;38955;48.916;2.336;2023-05-19T02:31:32;12.20;94.60
53073;DHT22;38955;48.916;2.336;2023-05-19T02:33:35;12.20;94.60
53073;DHT22;38955;48.916;2.336;2023-05-19T02:35:38;12.30;94.70
53073;DHT22;38955;48.916;2.336;2023-05-19T02:37:40;12.30;94.60
53073;DHT22;38955;48.916;2.336;2023-05-19T02:39:43;12.30;94.50
53073;DHT22;38955;48.916;2.336;2023-05-19T02:41:45;12.30;94.30
53073;DHT22;38955;48.916;2.336;2023-05-19T02:43:47;12.20;94.40
53073;DHT22;38955;48.916;2.336;2023-05-19T02:45:49;12.20;94.40
53073;DHT22;38955;48.916;2.336;2023-05-19T02:47:51;12.30;94.70
53073;DHT22;38955;48.916;2.336;2023-05-19T02:49:53;12.20;94.50
53073;DHT22;38955;48.916;2.336;2023-05-19T02:51:56;12.30;94.50
53073;DHT22;38955;48.916;2.336;2023-05-19T02:53:58;12.30;94.30
53073;DHT22;38955;48.916;2.336;2023-05-19T02:56:03;12.20;94.70
53073;DHT22;38955;48.916;2.336;2023-05-19T02:58:05;12.20;94.50
53073;DHT22;38955;48.916;2.336;2023-05-19T03:00:08;12.20;94.40
53073;DHT22;38955;48.916;2.336;2023-05-19T03:02:10;12.20;94.60
53073;DHT22;38955;48.916;2.336;2023-05-19T03:04:13;12.20;94.40
53073;DHT22;38955;48.916;2.336;2023-05-19T03:06:15;12.20;94.60
53073;DHT22;38955;48.916;2.336;2023-05-19T03:08:20;12.30;94.50
53073;DHT22;38955;48.916;2.336;2023-05-19T03:10:22;12.20;94.40
53073;DHT22;38955;48.916;2.336;2023-05-19T03:12:24;12.20;94.60
53073;DHT22;38955;48.916;2.336;2023-05-19T03:14:26;12.20;94.70
53073;DHT22;38955;48.916;2.336;2023-05-19T03:16:28;12.20;94.40
53073;DHT22;38955;48.916;2.336;2023-05-19T03:18:30;12.20;94.50
53073;DHT22;38955;48.916;2.336;2023-05-19T03:20:33;12.20;94.50
53073;DHT22;38955;48.916;2.336;2023-05-19T03:22:35;12.10;94.70
53073;DHT22;38955;48.916;2.336;2023-05-19T03:24:39;12.00;94.70
53073;DHT22;38955;48.916;2.336;2023-05-19T03:26:41;12.00;94.70
53073;DHT22;38955;48.916;2.336;2023-05-19T03:28:43;12.00;94.70
53073;DHT22;38955;48.916;2.336;2023-05-19T03:30:46;11.90;94.80
53073;DHT22;38955;48.916;2.336;2023-05-19T03:32:50;12.00;94.70
53073;DHT22;38955;48.916;2.336;2023-05-19T03:34:52;12.00;94.70
53073;DHT22;38955;48.916;2.336;2023-05-19T03:36:55;12.00;94.80
53073;DHT22;38955;48.916;2.336;2023-05-19T03:38:57;12.00;94.80
53073;DHT22;38955;48.916;2.336;2023-05-19T03:41:00;11.80;94.80
53073;DHT22;38955;48.916;2.336;2023-05-19T03:43:03;11.80;95.10
53073;DHT22;38955;48.916;2.336;2023-05-19T03:45:06;12.00;95.00
53073;DHT22;38955;48.916;2.336;2023-05-19T03:47:08;11.90;94.80
53073;DHT22;38955;48.916;2.336;2023-05-19T03:49:11;11.90;94.90
53073;DHT22;38955;48.916;2.336;2023-05-19T03:51:14;11.90;94.90
53073;DHT22;38955;48.916;2.336;2023-05-19T03:53:16;11.90;95.10
53073;DHT22;38955;48.916;2.336;2023-05-19T03:55:18;11.90;94.90
53073;DHT22;38955;48.916;2.336;2023-05-19T03:57:22;11.80;95.10
53073;DHT22;38955;48.916;2.336;2023-05-19T03:59:24;11.90;95.10
53073;DHT22;38955;48.916;2.336;2023-05-19T04:01:26;11.70;95.00
53073;DHT22;38955;48.916;2.336;2023-05-19T04:03:28;11.70;95.00
53073;DHT22;38955;48.916;2.336;2023-05-19T04:05:30;11.70;95.30
53073;DHT22;38955;48.916;2.336;2023-05-19T04:07:32;11.80;95.20
53073;DHT22;38955;48.916;2.336;2023-05-19T04:09:34;11.80;95.10
53073;DHT22;38955;48.916;2.336;2023-05-19T04:11:38;11.70;95.20
53073;DHT22;38955;48.916;2.336;2023-05-19T04:13:42;11.70;95.30
53073;DHT22;38955;48.916;2.336;2023-05-19T04:15:46;11.80;95.30
53073;DHT22;38955;48.916;2.336;2023-05-19T04:17:48;11.80;95.10
53073;DHT22;38955;48.916;2.336;2023-05-19T04:19:50;11.80;95.00
53073;DHT22;38955;48.916;2.336;2023-05-19T04:21:52;11.80;95.10
53073;DHT22;38955;48.916;2.336;2023-05-19T04:23:54;11.80;95.20
53073;DHT22;38955;48.916;2.336;2023-05-19T04:25:56;11.80;95.20
53073;DHT22;38955;48.916;2.336;2023-05-19T04:27:59;11.70;95.00
53073;DHT22;38955;48.916;2.336;2023-05-19T04:30:03;11.70;95.10
53073;DHT22;38955;48.916;2.336;2023-05-19T04:32:06;11.70;95.00
53073;DHT22;38955;48.916;2.336;2023-05-19T04:34:08;11.70;95.00
53073;DHT22;38955;48.916;2.336;2023-05-19T04:36:11;11.70;95.20
53073;DHT22;38955;48.916;2.336;2023-05-19T04:38:14;11.80;95.00
53073;DHT22;38955;48.916;2.336;2023-05-19T04:40:19;11.70;95.00
53073;DHT22;38955;48.916;2.336;2023-05-19T04:42:22;11.70;94.90
53073;DHT22;38955;48.916;2.336;2023-05-19T04:44:26;11.80;95.30
53073;DHT22;38955;48.916;2.336;2023-05-19T04:46:30;11.90;94.70
53073;DHT22;38955;48.916;2.336;2023-05-19T04:48:32;12.00;94.50
53073;DHT22;38955;48.916;2.336;2023-05-19T04:50:34;11.90;94.60
53073;DHT22;38955;48.916;2.336;2023-05-19T04:52:39;11.90;94.50
53073;DHT22;38955;48.916;2.336;2023-05-19T04:54:43;12.00;94.50
53073;DHT22;38955;48.916;2.336;2023-05-19T04:56:45;12.10;94.40
53073;DHT22;38955;48.916;2.336;2023-05-19T04:58:47;12.00;94.20
53073;DHT22;38955;48.916;2.336;2023-05-19T05:00:49;12.10;94.30
53073;DHT22;38955;48.916;2.336;2023-05-19T05:02:53;12.10;94.40
53073;DHT22;38955;48.916;2.336;2023-05-19T05:04:58;12.10;94.30
53073;DHT22;38955;48.916;2.336;2023-05-19T05:07:00;12.10;94.20
53073;DHT22;38955;48.916;2.336;2023-05-19T05:09:02;12.10;94.40
53073;DHT22;38955;48.916;2.336;2023-05-19T05:11:05;12.20;94.10
53073;DHT22;38955;48.916;2.336;2023-05-19T05:13:08;12.30;93.70
53073;DHT22;38955;48.916;2.336;2023-05-19T05:15:13;12.30;93.70
53073;DHT22;38955;48.916;2.336;2023-05-19T05:17:15;12.40;93.50
53073;DHT22;38955;48.916;2.336;2023-05-19T05:19:20;12.30;93.50
53073;DHT22;38955;48.916;2.336;2023-05-19T05:21:23;12.30;93.50
53073;DHT22;38955;48.916;2.336;2023-05-19T05:23:27;12.30;93.50
53073;DHT22;38955;48.916;2.336;2023-05-19T05:25:31;12.30;93.40
53073;DHT22;38955;48.916;2.336;2023-05-19T05:27:34;12.40;93.50
53073;DHT22;38955;48.916;2.336;2023-05-19T05:29:36;12.30;93.30
53073;DHT22;38955;48.916;2.336;2023-05-19T05:31:38;12.30;93.30
53073;DHT22;38955;48.916;2.336;2023-05-19T05:33:41;12.40;93.20
53073;DHT22;38955;48.916;2.336;2023-05-19T05:35:45;12.40;93.20
53073;DHT22;38955;48.916;2.336;2023-05-19T05:37:47;12.50;93.30
53073;DHT22;38955;48.916;2.336;2023-05-19T05:39:49;12.50;93.00
53073;DHT22;38955;48.916;2.336;2023-05-19T05:41:51;12.40;93.10
53073;DHT22;38955;48.916;2.336;2023-05-19T05:43:53;12.50;93.10
53073;DHT22;38955;48.916;2.336;2023-05-19T05:45:55;12.50;93.10
53073;DHT22;38955;48.916;2.336;2023-05-19T05:47:58;12.50;93.00
53073;DHT22;38955;48.916;2.336;2023-05-19T05:50:01;12.40;92.90
53073;DHT22;38955;48.916;2.336;2023-05-19T05:52:07;12.30;93.10
53073;DHT22;38955;48.916;2.336;2023-05-19T05:54:11;12.30;93.10
53073;DHT22;38955;48.916;2.336;2023-05-19T05:56:14;12.30;93.10
53073;DHT22;38955;48.916;2.336;2023-05-19T05:58:16;12.30;93.20
53073;DHT22;38955;48.916;2.336;2023-05-19T06:00:19;12.30;93.30
53073;DHT22;38955;48.916;2.336;2023-05-19T06:02:23;12.30;93.20
53073;DHT22;38955;48.916;2.336;2023-05-19T06:04:25;12.40;93.30
53073;DHT22;38955;48.916;2.336;2023-05-19T06:06:27;12.50;93.20
53073;DHT22;38955;48.916;2.336;2023-05-19T06:08:31;12.60;92.90
53073;DHT22;38955;48.916;2.336;2023-05-19T06:10:34;12.60;92.80
53073;DHT22;38955;48.916;2.336;2023-05-19T06:12:37;12.60;92.80
53073;DHT22;38955;48.916;2.336;2023-05-19T06:14:41;12.60;92.90
53073;DHT22;38955;48.916;2.336;2023-05-19T06:16:43;12.60;92.90
53073;DHT22;38955;48.916;2.336;2023-05-19T06:18:46;12.70;92.60
53073;DHT22;38955;48.916;2.336;2023-05-19T06:20:48;12.60;92.60
53073;DHT22;38955;48.916;2.336;2023-05-19T06:22:50;12.70;92.60
53073;DHT22;38955;48.916;2.336;2023-05-19T06:24:53;12.70;92.60
53073;DHT22;38955;48.916;2.336;2023-05-19T06:26:55;12.70;92.40
53073;DHT22;38955;48.916;2.336;2023-05-19T06:28:57;12.60;92.80
53073;DHT22;38955;48.916;2.336;2023-05-19T06:30:59;12.70;92.60
53073;DHT22;38955;48.916;2.336;2023-05-19T06:33:01;12.70;92.60
53073;DHT22;38955;48.916;2.336;2023-05-19T06:35:04;12.70;92.50
53073;DHT22;38955;48.916;2.336;2023-05-19T06:37:07;12.80;92.30
53073;DHT22;38955;48.916;2.336;2023-05-19T06:39:09;12.80;92.50
53073;DHT22;38955;48.916;2.336;2023-05-19T06:41:13;12.80;92.50
53073;DHT22;38955;48.916;2.336;2023-05-19T06:43:16;12.80;92.30
53073;DHT22;38955;48.916;2.336;2023-05-19T06:45:18;12.80;92.40
53073;DHT22;38955;48.916;2.336;2023-05-19T06:47:23;12.90;92.30
53073;DHT22;38955;48.916;2.336;2023-05-19T06:49:25;13.00;92.20
53073;DHT22;38955;48.916;2.336;2023-05-19T06:51:30;13.10;92.10
53073;DHT22;38955;48.916;2.336;2023-05-19T06:53:32;13.10;92.00
53073;DHT22;38955;48.916;2.336;2023-05-19T06:55:36;13.10;92.10
53073;DHT22;38955;48.916;2.336;2023-05-19T06:57:59;13.20;92.00
53073;DHT22;38955;48.916;2.336;2023-05-19T07:00:02;13.40;92.00
53073;DHT22;38955;48.916;2.336;2023-05-19T07:02:05;13.50;91.60
53073;DHT22;38955;48.916;2.336;2023-05-19T07:04:07;13.50;91.60
53073;DHT22;38955;48.916;2.336;2023-05-19T07:06:12;13.80;91.40
53073;DHT22;38955;48.916;2.336;2023-05-19T07:08:14;14.00;91.40
53073;DHT22;38955;48.916;2.336;2023-05-19T07:10:17;14.20;91.30
53073;DHT22;38955;48.916;2.336;2023-05-19T07:12:19;14.40;90.90
53073;DHT22;38955;48.916;2.336;2023-05-19T07:14:22;14.50;90.30
53073;DHT22;38955;48.916;2.336;2023-05-19T07:16:25;14.60;90.80
53073;DHT22;38955;48.916;2.336;2023-05-19T07:18:27;14.70;90.50
53073;DHT22;38955;48.916;2.336;2023-05-19T07:20:32;14.90;90.30
53073;DHT22;38955;48.916;2.336;2023-05-19T07:22:35;15.10;90.10
53073;DHT22;38955;48.916;2.336;2023-05-19T07:24:37;15.10;90.00
53073;DHT22;38955;48.916;2.336;2023-05-19T07:26:40;15.20;89.90
53073;DHT22;38955;48.916;2.336;2023-05-19T07:28:43;15.40;90.00
53073;DHT22;38955;48.916;2.336;2023-05-19T07:30:46;15.50;89.00
53073;DHT22;38955;48.916;2.336;2023-05-19T07:32:50;15.50;88.90
53073;DHT22;38955;48.916;2.336;2023-05-19T07:34:52;15.40;88.30
53073;DHT22;38955;48.916;2.336;2023-05-19T07:36:55;15.50;88.00
53073;DHT22;38955;48.916;2.336;2023-05-19T07:38:57;15.60;89.50
53073;DHT22;38955;48.916;2.336;2023-05-19T07:40:59;15.80;89.10
53073;DHT22;38955;48.916;2.336;2023-05-19T07:43:01;15.90;88.90
53073;DHT22;38955;48.916;2.336;2023-05-19T07:45:07;16.00;89.00
53073;DHT22;38955;48.916;2.336;2023-05-19T07:47:10;15.90;88.30
53073;DHT22;38955;48.916;2.336;2023-05-19T07:49:12;16.00;87.70
53073;DHT22;38955;48.916;2.336;2023-05-19T07:51:14;16.10;87.30
53073;DHT22;38955;48.916;2.336;2023-05-19T07:53:17;16.20;87.20
53073;DHT22;38955;48.916;2.336;2023-05-19T07:55:19;16.20;87.10
53073;DHT22;38955;48.916;2.336;2023-05-19T07:57:23;16.30;87.40
53073;DHT22;38955;48.916;2.336;2023-05-19T07:59:26;16.40;87.80
53073;DHT22;38955;48.916;2.336;2023-05-19T08:01:28;16.40;88.10
53073;DHT22;38955;48.916;2.336;2023-05-19T08:03:32;16.50;87.90
53073;DHT22;38955;48.916;2.336;2023-05-19T08:05:35;16.60;88.00
53073;DHT22;38955;48.916;2.336;2023-05-19T08:07:37;16.60;87.00
53073;DHT22;38955;48.916;2.336;2023-05-19T08:09:39;16.50;86.50
53073;DHT22;38955;48.916;2.336;2023-05-19T08:11:41;16.60;87.40
53073;DHT22;38955;48.916;2.336;2023-05-19T08:13:43;16.60;87.60
53073;DHT22;38955;48.916;2.336;2023-05-19T08:15:48;16.70;87.30
53073;DHT22;38955;48.916;2.336;2023-05-19T08:17:50;16.70;87.50
53073;DHT22;38955;48.916;2.336;2023-05-19T08:19:54;16.70;87.80
53073;DHT22;38955;48.916;2.336;2023-05-19T08:21:57;16.70;87.10
53073;DHT22;38955;48.916;2.336;2023-05-19T08:24:02;16.80;87.60
53073;DHT22;38955;48.916;2.336;2023-05-19T08:26:04;16.70;86.50
53073;DHT22;38955;48.916;2.336;2023-05-19T08:28:06;16.90;86.90
53073;DHT22;38955;48.916;2.336;2023-05-19T08:30:10;16.90;86.70
53073;DHT22;38955;48.916;2.336;2023-05-19T08:32:12;17.10;85.80
53073;DHT22;38955;48.916;2.336;2023-05-19T08:34:14;17.10;86.70
53073;DHT22;38955;48.916;2.336;2023-05-19T08:36:18;17.10;86.40
53073;DHT22;38955;48.916;2.336;2023-05-19T08:38:20;17.20;86.00
53073;DHT22;38955;48.916;2.336;2023-05-19T08:40:22;17.20;86.10
53073;DHT22;38955;48.916;2.336;2023-05-19T08:42:25;17.30;86.10
53073;DHT22;38955;48.916;2.336;2023-05-19T08:44:28;17.40;85.50
53073;DHT22;38955;48.916;2.336;2023-05-19T08:46:33;17.40;85.30
53073;DHT22;38955;48.916;2.336;2023-05-19T08:48:38;17.50;85.10
53073;DHT22;38955;48.916;2.336;2023-05-19T08:50:45;17.50;84.40
53073;DHT22;38955;48.916;2.336;2023-05-19T08:52:52;17.50;84.30
53073;DHT22;38955;48.916;2.336;2023-05-19T08:54:59;17.50;84.60
53073;DHT22;38955;48.916;2.336;2023-05-19T08:57:01;17.50;83.30
53073;DHT22;38955;48.916;2.336;2023-05-19T08:59:04;17.50;84.20
53073;DHT22;38955;48.916;2.336;2023-05-19T09:01:07;17.60;84.30
53073;DHT22;38955;48.916;2.336;2023-05-19T09:03:10;17.60;83.10
53073;DHT22;38955;48.916;2.336;2023-05-19T09:05:18;17.50;84.30
53073;DHT22;38955;48.916;2.336;2023-05-19T09:07:22;17.70;84.50
53073;DHT22;38955;48.916;2.336;2023-05-19T09:09:28;17.80;83.90
53073;DHT22;38955;48.916;2.336;2023-05-19T09:11:30;17.70;82.80
53073;DHT22;38955;48.916;2.336;2023-05-19T09:13:32;17.70;82.90
53073;DHT22;38955;48.916;2.336;2023-05-19T09:15:34;17.70;83.80
53073;DHT22;38955;48.916;2.336;2023-05-19T09:17:40;17.80;84.30
53073;DHT22;38955;48.916;2.336;2023-05-19T09:19:42;18.00;84.40
53073;DHT22;38955;48.916;2.336;2023-05-19T09:21:45;18.00;84.30
53073;DHT22;38955;48.916;2.336;2023-05-19T09:23:47;18.20;83.90
53073;DHT22;38955;48.916;2.336;2023-05-19T09:25:52;18.10;83.70
53073;DHT22;38955;48.916;2.336;2023-05-19T09:27:54;18.30;83.60
53073;DHT22;38955;48.916;2.336;2023-05-19T09:30:06;18.40;82.70
53073;DHT22;38955;48.916;2.336;2023-05-19T09:32:09;18.30;83.60
53073;DHT22;38955;48.916;2.336;2023-05-19T09:34:12;18.20;82.40
53073;DHT22;38955;48.916;2.336;2023-05-19T09:36:14;18.40;83.80
53073;DHT22;38955;48.916;2.336;2023-05-19T09:38:16;18.50;81.90
53073;DHT22;38955;48.916;2.336;2023-05-19T09:40:19;18.50;81.50
53073;DHT22;38955;48.916;2.336;2023-05-19T09:42:26;18.30;80.80
53073;DHT22;38955;48.916;2.336;2023-05-19T09:44:30;18.40;81.30
53073;DHT22;38955;48.916;2.336;2023-05-19T09:46:33;18.70;81.90
53073;DHT22;38955;48.916;2.336;2023-05-19T09:48:37;18.80;80.60
53073;DHT22;38955;48.916;2.336;2023-05-19T09:50:41;18.90;81.40
53073;DHT22;38955;48.916;2.336;2023-05-19T09:52:43;19.00;81.50
53073;DHT22;38955;48.916;2.336;2023-05-19T09:54:46;19.00;80.70
53073;DHT22;38955;48.916;2.336;2023-05-19T09:56:56;19.00;80.10
53073;DHT22;38955;48.916;2.336;2023-05-19T09:59:01;19.00;79.90
53073;DHT22;38955;48.916;2.336;2023-05-19T10:01:04;19.20;80.20
53073;DHT22;38955;48.916;2.336;2023-05-19T10:03:08;19.40;79.10
53073;DHT22;38955;48.916;2.336;2023-05-19T10:05:12;19.40;75.90
53073;DHT22;38955;48.916;2.336;2023-05-19T10:07:18;19.20;76.50
53073;DHT22;38955;48.916;2.336;2023-05-19T10:09:22;19.20;77.30
53073;DHT22;38955;48.916;2.336;2023-05-19T10:11:29;19.20;78.60
53073;DHT22;38955;48.916;2.336;2023-05-19T10:13:33;19.20;77.40
53073;DHT22;38955;48.916;2.336;2023-05-19T10:15:37;19.30;78.30
53073;DHT22;38955;48.916;2.336;2023-05-19T10:17:59;19.40;77.40
53073;DHT22;38955;48.916;2.336;2023-05-19T10:20:04;19.60;76.80
53073;DHT22;38955;48.916;2.336;2023-05-19T10:22:07;19.70;77.10
53073;DHT22;38955;48.916;2.336;2023-05-19T10:24:09;19.80;76.90
53073;DHT22;38955;48.916;2.336;2023-05-19T10:26:14;19.70;74.60
53073;DHT22;38955;48.916;2.336;2023-05-19T10:28:17;19.60;75.70
53073;DHT22;38955;48.916;2.336;2023-05-19T10:30:25;19.40;76.00
53073;DHT22;38955;48.916;2.336;2023-05-19T10:32:31;19.20;77.20
53073;DHT22;38955;48.916;2.336;2023-05-19T10:34:56;19.40;76.20
53073;DHT22;38955;48.916;2.336;2023-05-19T10:37:10;19.40;76.30
53073;DHT22;38955;48.916;2.336;2023-05-19T10:39:18;19.60;76.20
53073;DHT22;38955;48.916;2.336;2023-05-19T10:41:27;19.40;76.10
53073;DHT22;38955;48.916;2.336;2023-05-19T10:43:43;19.30;75.20
53073;DHT22;38955;48.916;2.336;2023-05-19T10:45:50;19.40;75.90
53073;DHT22;38955;48.916;2.336;2023-05-19T10:47:55;19.50;76.00
53073;DHT22;38955;48.916;2.336;2023-05-19T10:49:59;19.70;75.30
53073;DHT22;38955;48.916;2.336;2023-05-19T10:52:01;19.80;75.60
53073;DHT22;38955;48.916;2.336;2023-05-19T10:54:07;19.70;76.20
53073;DHT22;38955;48.916;2.336;2023-05-19T10:56:27;19.80;76.00
53073;DHT22;38955;48.916;2.336;2023-05-19T10:58:48;19.80;75.90
53073;DHT22;38955;48.916;2.336;2023-05-19T11:00:59;19.90;76.10
53073;DHT22;38955;48.916;2.336;2023-05-19T11:03:15;20.00;74.40
53073;DHT22;38955;48.916;2.336;2023-05-19T11:05:27;19.80;74.90
53073;DHT22;38955;48.916;2.336;2023-05-19T11:07:29;19.70;73.40
53073;DHT22;38955;48.916;2.336;2023-05-19T11:09:38;19.70;74.90
53073;DHT22;38955;48.916;2.336;2023-05-19T11:11:44;19.80;75.10
53073;DHT22;38955;48.916;2.336;2023-05-19T11:13:50;19.80;74.80
53073;DHT22;38955;48.916;2.336;2023-05-19T11:15:52;20.00;74.90
53073;DHT22;38955;48.916;2.336;2023-05-19T11:18:00;20.10;74.90
53073;DHT22;38955;48.916;2.336;2023-05-19T11:20:07;20.10;75.40
53073;DHT22;38955;48.916;2.336;2023-05-19T11:22:12;19.80;74.50
53073;DHT22;38955;48.916;2.336;2023-05-19T11:24:33;19.60;75.20
53073;DHT22;38955;48.916;2.336;2023-05-19T11:26:42;19.60;75.50
53073;DHT22;38955;48.916;2.336;2023-05-19T11:28:46;19.70;73.80
53073;DHT22;38955;48.916;2.336;2023-05-19T11:30:53;19.70;74.60
53073;DHT22;38955;48.916;2.336;2023-05-19T11:32:55;19.80;75.40
53073;DHT22;38955;48.916;2.336;2023-05-19T11:34:58;19.80;73.80
53073;DHT22;38955;48.916;2.336;2023-05-19T11:37:03;20.00;74.40
53073;DHT22;38955;48.916;2.336;2023-05-19T11:39:05;20.00;73.20
53073;DHT22;38955;48.916;2.336;2023-05-19T11:41:09;20.00;73.50
53073;DHT22;38955;48.916;2.336;2023-05-19T11:43:11;20.10;73.80
53073;DHT22;38955;48.916;2.336;2023-05-19T11:45:13;20.30;74.30
53073;DHT22;38955;48.916;2.336;2023-05-19T11:47:15;20.30;71.10
53073;DHT22;38955;48.916;2.336;2023-05-19T11:49:18;20.40;70.80
53073;DHT22;38955;48.916;2.336;2023-05-19T11:51:20;20.50;72.70
53073;DHT22;38955;48.916;2.336;2023-05-19T11:53:24;20.60;72.30
53073;DHT22;38955;48.916;2.336;2023-05-19T11:55:27;20.50;74.30
53073;DHT22;38955;48.916;2.336;2023-05-19T11:57:29;20.40;74.70
53073;DHT22;38955;48.916;2.336;2023-05-19T11:59:33;20.20;72.10
53073;DHT22;38955;48.916;2.336;2023-05-19T12:01:37;20.30;72.90
53073;DHT22;38955;48.916;2.336;2023-05-19T12:03:39;20.40;72.90
53073;DHT22;38955;48.916;2.336;2023-05-19T12:05:44;20.40;72.60
53073;DHT22;38955;48.916;2.336;2023-05-19T12:07:48;20.40;73.80
53073;DHT22;38955;48.916;2.336;2023-05-19T12:09:54;20.30;73.60
53073;DHT22;38955;48.916;2.336;2023-05-19T12:11:57;20.20;73.50
53073;DHT22;38955;48.916;2.336;2023-05-19T12:14:00;20.20;73.50
53073;DHT22;38955;48.916;2.336;2023-05-19T12:16:03;20.20;73.80
53073;DHT22;38955;48.916;2.336;2023-05-19T12:18:05;20.40;74.10
53073;DHT22;38955;48.916;2.336;2023-05-19T12:20:09;20.50;72.70
53073;DHT22;38955;48.916;2.336;2023-05-19T12:22:12;20.50;72.30
53073;DHT22;38955;48.916;2.336;2023-05-19T12:24:15;20.50;71.50
53073;DHT22;38955;48.916;2.336;2023-05-19T12:26:18;20.40;70.50
53073;DHT22;38955;48.916;2.336;2023-05-19T12:28:23;20.40;70.80
53073;DHT22;38955;48.916;2.336;2023-05-19T12:30:25;20.40;71.20
53073;DHT22;38955;48.916;2.336;2023-05-19T12:32:28;20.40;71.70
53073;DHT22;38955;48.916;2.336;2023-05-19T12:34:30;20.50;69.40
53073;DHT22;38955;48.916;2.336;2023-05-19T12:36:33;20.20;68.60
53073;DHT22;38955;48.916;2.336;2023-05-19T12:38:35;20.10;68.70
53073;DHT22;38955;48.916;2.336;2023-05-19T12:40:40;20.20;69.10
53073;DHT22;38955;48.916;2.336;2023-05-19T12:42:44;20.30;70.60
53073;DHT22;38955;48.916;2.336;2023-05-19T12:44:48;20.40;71.00
53073;DHT22;38955;48.916;2.336;2023-05-19T12:46:56;20.40;70.90
53073;DHT22;38955;48.916;2.336;2023-05-19T12:48:58;20.30;71.00
53073;DHT22;38955;48.916;2.336;2023-05-19T12:51:02;20.40;71.40
53073;DHT22;38955;48.916;2.336;2023-05-19T12:53:07;20.40;70.90
53073;DHT22;38955;48.916;2.336;2023-05-19T12:55:10;20.40;71.70
53073;DHT22;38955;48.916;2.336;2023-05-19T12:57:15;20.50;71.50
53073;DHT22;38955;48.916;2.336;2023-05-19T12:59:23;20.50;71.10
53073;DHT22;38955;48.916;2.336;2023-05-19T13:01:39;20.50;71.50
53073;DHT22;38955;48.916;2.336;2023-05-19T13:03:41;20.50;71.80
53073;DHT22;38955;48.916;2.336;2023-05-19T13:05:45;20.50;71.20